Time;durP1;ratioP1;P1;durP2;ratioP2;P2;SDS_P1;SDS_P2;PMS_P1;PMS_P2;Temp;Humidity;BMP_temperature;BMP_pressure;BME280_temperature;BME280_humidity;BME280_pressure;Samples;Min_cycle;Max_cycle;Signal;HPM_P1;HPM_P2
2024/03/25 00:00:47;;;;;;;0.80;0.80;;;;;;;3.66;100.00;92293.88;2110872;28;20023;-84
2024/03/25 00:01:51;;;;;;;1.20;0.95;;;;;;;3.66;100.00;92293.13;2098488;28;20039;-84
2024/03/25 00:02:52;;;;;;;1.88;0.90;;;;;;;3.62;100.00;92293.16;2103907;28;20117;-84
2024/03/25 00:04:00;;;;;;;1.50;1.00;;;;;;;3.50;100.00;92288.34;2097977;28;20118;-85
2024/03/25 00:05:02;;;;;;;1.15;0.80;;;;;;;3.79;100.00;92292.22;2106334;28;20031;-86
2024/03/25 00:06:06;;;;;;;0.77;0.77;;;;;;;3.73;100.00;92296.44;2092744;28;20036;-84
2024/03/25 00:07:10;;;;;;;0.90;0.85;;;;;;;3.75;100.00;92293.41;2099553;28;20086;-84
2024/03/25 00:08:13;;;;;;;1.70;0.75;;;;;;;3.71;100.00;92287.41;2100467;28;20043;-85
2024/03/25 00:09:17;;;;;;;1.13;0.80;;;;;;;3.61;100.00;92294.28;2103987;28;20110;-84
2024/03/25 00:10:23;;;;;;;1.02;0.70;;;;;;;3.45;100.00;92296.69;2100109;27;20036;-83
2024/03/25 00:11:31;;;;;;;1.77;0.90;;;;;;;3.45;100.00;92297.44;2093147;28;20464;-83
2024/03/25 00:12:33;;;;;;;0.73;0.70;;;;;;;3.41;100.00;92293.31;2099714;28;20549;-84
2024/03/25 00:13:34;;;;;;;1.27;0.88;;;;;;;3.40;100.00;92297.84;2101909;28;20051;-83
2024/03/25 00:14:38;;;;;;;0.80;0.80;;;;;;;3.56;100.00;92293.94;2101802;28;20040;-83
2024/03/25 00:15:41;;;;;;;0.75;0.75;;;;;;;3.23;100.00;92302.13;2116691;27;20045;-84
2024/03/25 00:16:48;;;;;;;0.88;0.73;;;;;;;2.96;100.00;92304.59;2118397;27;20023;-83
2024/03/25 00:17:52;;;;;;;1.00;0.80;;;;;;;3.09;100.00;92301.50;2110366;28;20016;-84
2024/03/25 00:18:53;;;;;;;1.15;0.80;;;;;;;2.98;100.00;92307.59;2106385;28;20036;-84
2024/03/25 00:19:59;;;;;;;0.80;0.80;;;;;;;2.93;100.00;92302.72;2094078;28;20032;-84
2024/03/25 00:21:04;;;;;;;0.60;0.60;;;;;;;3.09;100.00;92296.22;2094678;28;20051;-83
2024/03/25 00:22:05;;;;;;;1.00;0.90;;;;;;;3.13;100.00;92294.31;2102071;28;20020;-84
2024/03/25 00:23:14;;;;;;;1.65;0.80;;;;;;;3.01;100.00;92303.44;2101666;28;20024;-84
2024/03/25 00:24:16;;;;;;;0.80;0.80;;;;;;;2.80;100.00;92288.47;2103168;28;20469;-83
2024/03/25 00:25:19;;;;;;;2.30;0.70;;;;;;;2.85;100.00;92297.88;2099150;28;20043;-85
2024/03/25 00:26:29;;;;;;;0.70;0.70;;;;;;;2.82;100.00;92294.13;2098128;28;20031;-84
2024/03/25 00:27:30;;;;;;;1.63;0.73;;;;;;;2.82;100.00;92296.03;2095608;28;20050;-84
2024/03/25 00:28:31;;;;;;;0.80;0.80;;;;;;;2.93;100.00;92297.44;2093472;28;20036;-85
2024/03/25 00:29:36;;;;;;;0.98;0.70;;;;;;;2.93;100.00;92300.06;2093583;28;20097;-84
2024/03/25 00:30:37;;;;;;;1.33;0.80;;;;;;;2.97;100.00;92300.81;2086167;28;20079;-84
2024/03/25 00:31:40;;;;;;;0.70;0.70;;;;;;;2.94;100.00;92298.97;2094394;28;20032;-84
2024/03/25 00:32:48;;;;;;;0.73;0.70;;;;;;;2.92;100.00;92295.19;2091579;28;20071;-85
2024/03/25 00:33:52;;;;;;;1.75;0.90;;;;;;;2.93;100.00;92294.81;2089767;28;20025;-84
2024/03/25 00:34:54;;;;;;;1.95;0.80;;;;;;;2.95;100.00;92297.06;2105989;28;20093;-84
2024/03/25 00:36:00;;;;;;;1.42;0.90;;;;;;;2.83;100.00;92294.88;2104456;28;20088;-83
2024/03/25 00:37:01;;;;;;;0.90;0.70;;;;;;;2.92;100.00;92300.47;2090480;28;20428;-83
2024/03/25 00:38:07;;;;;;;1.05;0.80;;;;;;;2.85;100.00;92290.69;2089714;28;20020;-84
2024/03/25 00:39:08;;;;;;;2.63;0.70;;;;;;;2.80;100.00;92290.38;2090309;28;20595;-84
2024/03/25 00:40:09;;;;;;;0.75;0.75;;;;;;;2.79;100.00;92286.97;2092099;28;20183;-85
2024/03/25 00:41:12;;;;;;;0.60;0.60;;;;;;;2.79;100.00;92286.97;2091760;28;20109;-84
2024/03/25 00:42:13;;;;;;;0.82;0.80;;;;;;;2.73;100.00;92286.66;2111788;27;20381;-84
2024/03/25 00:43:14;;;;;;;0.90;0.73;;;;;;;2.65;100.00;92292.34;2107672;28;20240;-83
2024/03/25 00:44:15;;;;;;;0.80;0.80;;;;;;;2.71;100.00;92293.44;2094327;28;20027;-83
2024/03/25 00:45:18;;;;;;;0.93;0.60;;;;;;;2.70;100.00;92294.56;2099154;28;20028;-83
2024/03/25 00:46:27;;;;;;;0.80;0.80;;;;;;;2.73;100.00;92286.66;2097971;28;20509;-83
2024/03/25 00:47:28;;;;;;;1.10;1.00;;;;;;;2.74;100.00;92290.03;2098625;28;20028;-83
2024/03/25 00:48:29;;;;;;;1.00;0.90;;;;;;;2.68;100.00;92283.66;2101296;28;20028;-83
2024/03/25 00:49:30;;;;;;;0.85;0.85;;;;;;;2.72;100.00;92284.38;2110315;28;20477;-82
2024/03/25 00:50:31;;;;;;;1.23;0.80;;;;;;;2.68;100.00;92284.41;2101457;28;20043;-84
2024/03/25 00:51:32;;;;;;;0.75;0.75;;;;;;;2.71;100.00;92283.63;2101607;28;20024;-84
2024/03/25 00:52:33;;;;;;;0.82;0.82;;;;;;;2.64;100.00;92288.97;2101590;28;20059;-84
2024/03/25 00:53:37;;;;;;;0.95;0.80;;;;;;;2.69;100.00;92279.88;2101154;28;20108;-83
2024/03/25 00:54:38;;;;;;;1.50;0.80;;;;;;;2.56;100.00;92286.75;2106581;28;20031;-83
2024/03/25 00:55:43;;;;;;;0.80;0.80;;;;;;;2.42;100.00;92283.03;2113331;28;20575;-85
2024/03/25 00:56:46;;;;;;;1.38;0.90;;;;;;;2.32;100.00;92283.81;2113396;28;20140;-84
2024/03/25 00:57:56;;;;;;;0.80;0.80;;;;;;;2.13;100.00;92282.41;2104127;28;20030;-84
2024/03/25 00:59:02;;;;;;;0.88;0.70;;;;;;;2.17;100.00;92282.41;2102499;28;20415;-84
2024/03/25 01:00:04;;;;;;;0.70;0.70;;;;;;;2.04;100.00;92283.94;2102587;28;20560;-83
2024/03/25 01:01:05;;;;;;;1.10;0.80;;;;;;;2.22;100.00;92282.75;2101599;28;20024;-84
2024/03/25 01:02:08;;;;;;;0.73;0.70;;;;;;;2.22;100.00;92282.00;2097031;27;20060;-83
2024/03/25 01:03:11;;;;;;;1.48;0.80;;;;;;;2.23;100.00;92281.59;2095171;28;20035;-84
2024/03/25 01:04:17;;;;;;;1.35;0.90;;;;;;;2.16;100.00;92280.91;2098259;27;20106;-83
2024/03/25 01:05:20;;;;;;;0.80;0.80;;;;;;;2.13;100.00;92271.84;2096771;28;20032;-83
2024/03/25 01:06:24;;;;;;;1.58;0.70;;;;;;;2.21;100.00;92283.13;2091366;28;20025;-83
2024/03/25 01:07:31;;;;;;;0.90;0.75;;;;;;;2.29;100.00;92270.69;2105461;28;20040;-83
2024/03/25 01:08:32;;;;;;;2.05;0.82;;;;;;;2.38;100.00;92269.13;2105503;28;20485;-83
2024/03/25 01:09:38;;;;;;;2.33;1.08;;;;;;;2.41;100.00;92270.22;2095680;28;20186;-83
2024/03/25 01:10:39;;;;;;;1.10;0.88;;;;;;;2.50;100.00;92268.69;2095408;28;20058;-83
2024/03/25 01:11:41;;;;;;;1.05;0.70;;;;;;;2.50;100.00;92271.31;2103257;28;20153;-83
2024/03/25 01:12:47;;;;;;;1.00;0.90;;;;;;;2.45;100.00;92270.97;2093839;28;20039;-84
2024/03/25 01:13:56;;;;;;;0.70;0.70;;;;;;;2.46;100.00;92267.94;2101621;28;20055;-83
2024/03/25 01:14:57;;;;;;;1.05;0.80;;;;;;;2.33;100.00;92272.16;2103519;27;20055;-83
2024/03/25 01:16:03;;;;;;;1.02;0.90;;;;;;;2.08;100.00;92269.63;2101123;28;20043;-83
2024/03/25 01:17:04;;;;;;;0.65;0.60;;;;;;;2.17;100.00;92275.22;2101932;28;20118;-82
2024/03/25 01:18:08;;;;;;;1.25;0.98;;;;;;;2.23;100.00;92271.06;2109625;28;20024;-84
2024/03/25 01:19:16;;;;;;;0.90;0.90;;;;;;;2.09;100.00;92273.00;2114330;27;20023;-84
2024/03/25 01:20:18;;;;;;;0.88;0.70;;;;;;;2.04;100.00;92273.41;2102376;28;20032;-84
2024/03/25 01:21:19;;;;;;;0.95;0.85;;;;;;;2.11;100.00;92268.09;2095187;28;20128;-84
2024/03/25 01:22:23;;;;;;;1.35;0.80;;;;;;;2.14;100.00;92277.88;2109535;28;20028;-84
2024/03/25 01:23:32;;;;;;;1.48;0.68;;;;;;;2.24;100.00;92271.84;2093696;28;20596;-83
2024/03/25 01:24:33;;;;;;;0.93;0.90;;;;;;;2.31;100.00;92263.13;2103115;27;20381;-83
2024/03/25 01:25:36;;;;;;;2.20;0.80;;;;;;;2.32;100.00;92269.91;2100979;28;20031;-84
2024/03/25 01:26:39;;;;;;;0.90;0.77;;;;;;;2.23;100.00;92271.06;2109948;27;20376;-84
2024/03/25 01:27:43;;;;;;;0.70;0.70;;;;;;;2.19;100.00;92259.03;2105310;28;20047;-83
2024/03/25 01:28:45;;;;;;;1.35;0.80;;;;;;;2.14;100.00;92262.81;2102050;28;20037;-84
2024/03/25 01:29:46;;;;;;;1.27;0.80;;;;;;;2.23;100.00;92259.75;2091499;28;20025;-83
2024/03/25 01:30:48;;;;;;;1.15;0.82;;;;;;;2.21;100.00;92268.06;2093153;28;20048;-83
2024/03/25 01:31:49;;;;;;;1.05;0.80;;;;;;;2.20;100.00;92265.81;2096083;28;20036;-82
2024/03/25 01:32:50;;;;;;;1.50;0.93;;;;;;;2.17;100.00;92261.31;2095386;28;20056;-82
2024/03/25 01:33:53;;;;;;;0.70;0.70;;;;;;;2.17;100.00;92261.31;2098337;28;20024;-83
2024/03/25 01:34:57;;;;;;;0.88;0.60;;;;;;;2.16;100.00;92259.81;2092828;28;20052;-83
2024/03/25 01:36:01;;;;;;;0.85;0.75;;;;;;;2.14;100.00;92262.06;2097069;28;20035;-83
2024/03/25 01:37:04;;;;;;;1.20;0.80;;;;;;;2.05;100.00;92256.44;2120914;27;20011;-83
2024/03/25 01:38:08;;;;;;;1.00;0.82;;;;;;;1.97;100.00;92258.34;2120016;27;20019;-83
2024/03/25 01:39:11;;;;;;;1.15;0.80;;;;;;;2.00;100.00;92258.34;2093707;28;20135;-83
2024/03/25 01:40:21;;;;;;;0.88;0.80;;;;;;;2.04;100.00;92263.63;2092091;28;20063;-83
2024/03/25 01:41:26;;;;;;;;;;;;;;;1.88;100.00;92261.41;2098938;28;20059;-83
2024/03/25 01:42:27;;;;;;;1.05;0.80;;;;;;;1.96;100.00;92257.59;2101409;28;20094;-83
2024/03/25 01:43:28;;;;;;;1.70;0.80;;;;;;;2.11;100.00;92257.53;2091882;28;20092;-82
2024/03/25 01:44:31;;;;;;;1.63;0.80;;;;;;;2.07;100.00;92252.31;2100921;28;20032;-84
2024/03/25 01:45:35;;;;;;;0.70;0.70;;;;;;;1.99;100.00;92250.84;2090018;28;20021;-83
2024/03/25 01:46:38;;;;;;;1.48;0.90;;;;;;;2.12;100.00;92249.28;2090392;28;20108;-82
2024/03/25 01:47:42;;;;;;;1.13;1.02;;;;;;;2.08;100.00;92253.81;2105388;28;20032;-82
2024/03/25 01:48:47;;;;;;;1.00;0.90;;;;;;;1.97;100.00;92248.56;2101615;28;20033;-83
2024/03/25 01:49:49;;;;;;;1.15;0.80;;;;;;;1.94;100.00;92238.81;2108351;28;20032;-83
2024/03/25 01:50:51;;;;;;;0.88;0.70;;;;;;;1.97;100.00;92251.19;2101286;28;20062;-83
2024/03/25 01:51:52;;;;;;;1.95;0.90;;;;;;;2.06;100.00;92239.50;2096859;28;20028;-82
2024/03/25 01:52:54;;;;;;;1.75;0.90;;;;;;;1.85;100.00;92254.28;2105481;28;20027;-82
2024/03/25 01:53:56;;;;;;;0.85;0.80;;;;;;;1.93;100.00;92252.34;2110667;28;20091;-82
2024/03/25 01:54:57;;;;;;;0.90;0.88;;;;;;;1.84;100.00;92244.09;2093023;28;20071;-82
2024/03/25 01:55:59;;;;;;;1.00;0.90;;;;;;;1.98;100.00;92246.72;2092875;28;20055;-83
2024/03/25 01:57:02;;;;;;;2.72;0.80;;;;;;;1.79;100.00;92247.13;2096854;28;20051;-82
2024/03/25 01:58:06;;;;;;;1.33;0.90;;;;;;;1.79;100.00;92245.25;2097568;28;20111;-82
2024/03/25 01:59:10;;;;;;;0.77;0.70;;;;;;;1.67;100.00;92246.44;2096828;28;20111;-83
2024/03/25 02:00:13;;;;;;;0.80;0.80;;;;;;;1.69;100.00;92248.66;2097412;28;20052;-82
2024/03/25 02:01:20;;;;;;;1.30;0.80;;;;;;;1.81;100.00;92248.25;2103638;28;20146;-83
2024/03/25 02:02:25;;;;;;;1.10;0.80;;;;;;;1.92;100.00;92248.97;2105264;28;20024;-84
2024/03/25 02:03:30;;;;;;;2.13;0.93;;;;;;;1.82;100.00;92249.75;2103136;28;20110;-84
2024/03/25 02:04:31;;;;;;;0.90;0.70;;;;;;;1.87;100.00;92252.00;2101304;28;20116;-84
2024/03/25 02:05:36;;;;;;;0.80;0.80;;;;;;;1.68;100.00;92247.91;2099456;28;20021;-83
2024/03/25 02:06:41;;;;;;;0.80;0.80;;;;;;;1.71;100.00;92246.38;2104445;27;20115;-83
2024/03/25 02:07:45;;;;;;;1.35;0.90;;;;;;;1.62;100.00;92241.53;2105474;28;20054;-83
2024/03/25 02:08:49;;;;;;;2.05;0.70;;;;;;;1.55;100.00;92238.19;2103459;27;20119;-82
2024/03/25 02:09:52;;;;;;;1.20;0.85;;;;;;;1.79;100.00;92241.88;2116315;27;20082;-83
2024/03/25 02:10:59;;;;;;;0.70;0.70;;;;;;;1.72;100.00;92240.75;2101529;28;20044;-83
2024/03/25 02:12:03;;;;;;;0.57;0.57;;;;;;;1.80;100.00;92238.09;2100623;28;20020;-83
2024/03/25 02:13:07;;;;;;;1.15;0.82;;;;;;;1.64;100.00;92239.28;2089282;28;20028;-83
2024/03/25 02:14:10;;;;;;;0.88;0.88;;;;;;;1.57;100.00;92231.38;2106771;27;20055;-83
2024/03/25 02:15:14;;;;;;;0.68;0.60;;;;;;;1.65;100.00;92232.88;2113107;28;20015;-83
2024/03/25 02:16:15;;;;;;;0.80;0.70;;;;;;;1.76;100.00;92227.59;2105306;28;20354;-84
2024/03/25 02:17:18;;;;;;;0.75;0.75;;;;;;;1.78;100.00;92230.56;2105338;28;20138;-83
2024/03/25 02:18:26;;;;;;;0.70;0.70;;;;;;;1.76;100.00;92230.97;2102590;28;20028;-84
2024/03/25 02:19:31;;;;;;;0.60;0.60;;;;;;;1.76;100.00;92228.34;2104917;28;20168;-84
2024/03/25 02:20:32;;;;;;;0.65;0.65;;;;;;;1.85;100.00;92233.19;2097690;28;20103;-83
2024/03/25 02:21:33;;;;;;;0.70;0.70;;;;;;;1.74;100.00;92224.56;2092415;28;20086;-83
2024/03/25 02:22:40;;;;;;;0.80;0.80;;;;;;;1.75;100.00;92229.44;2092644;28;20058;-83
2024/03/25 02:23:46;;;;;;;1.15;0.85;;;;;;;1.59;100.00;92223.13;2090605;28;20028;-83
2024/03/25 02:24:53;;;;;;;0.60;0.60;;;;;;;1.56;100.00;92227.25;2076585;28;20558;-83
2024/03/25 02:27:25;;;;;;;1.17;0.77;;;;;;;-0.22;100.00;92227.91;2140851;27;20189;-83
2024/03/25 02:28:26;;;;;;;0.95;0.80;;;;;;;-0.07;100.00;92224.19;2130365;27;20487;-82
2024/03/25 02:29:34;;;;;;;1.08;0.90;;;;;;;0.11;100.00;92231.38;2121331;28;20495;-83
2024/03/25 02:30:36;;;;;;;1.05;0.90;;;;;;;-0.03;100.00;92234.72;2113926;28;20063;-82
2024/03/25 02:31:37;;;;;;;0.75;0.73;;;;;;;0.00;100.00;92226.09;2119050;27;20026;-83
2024/03/25 02:32:39;;;;;;;2.38;0.90;;;;;;;-0.24;100.00;92235.38;2113245;28;20070;-84
2024/03/25 02:33:42;;;;;;;2.05;0.82;;;;;;;-0.36;100.00;92230.44;2115101;28;20460;-83
2024/03/25 02:34:49;;;;;;;0.75;0.70;;;;;;;-0.28;100.00;92222.22;2121004;28;20239;-82
2024/03/25 02:35:50;;;;;;;0.80;0.80;;;;;;;-0.28;100.00;92226.72;2121289;28;20027;-83
2024/03/25 02:36:52;;;;;;;4.00;1.00;;;;;;;-0.49;100.00;92237.13;2112840;28;20023;-83
2024/03/25 02:37:54;;;;;;;1.27;0.73;;;;;;;-0.41;100.00;92231.53;2112932;28;20027;-83
2024/03/25 02:38:55;;;;;;;1.00;0.70;;;;;;;-0.37;100.00;92228.94;2111809;28;20472;-83
2024/03/25 02:39:59;;;;;;;0.77;0.70;;;;;;;-0.33;100.00;92230.47;2110835;28;20542;-81
2024/03/25 02:41:00;;;;;;;1.55;0.90;;;;;;;-0.52;100.00;92228.88;2107656;28;20168;-82
2024/03/25 02:42:01;;;;;;;1.48;0.75;;;;;;;-0.38;100.00;92227.44;2112451;28;20115;-82
2024/03/25 02:43:03;;;;;;;1.08;0.80;;;;;;;-0.36;100.00;92220.69;2120939;28;20023;-82
2024/03/25 02:44:04;;;;;;;0.85;0.85;;;;;;;-0.59;100.00;92238.59;2104499;28;20024;-82
2024/03/25 02:45:06;;;;;;;0.85;0.80;;;;;;;-0.22;100.00;92222.66;2104158;28;20129;-84
2024/03/25 02:46:07;;;;;;;1.13;0.60;;;;;;;-0.34;100.00;92222.97;2104183;28;20028;-83
2024/03/25 02:47:08;;;;;;;0.73;0.70;;;;;;;-0.49;100.00;92226.63;2104092;28;20431;-84
2024/03/25 02:48:09;;;;;;;1.08;0.70;;;;;;;-0.45;100.00;92235.28;2112461;28;20032;-84
2024/03/25 02:49:10;;;;;;;0.80;0.80;;;;;;;-0.26;100.00;92222.63;2121292;27;20449;-83
2024/03/25 02:50:11;;;;;;;0.77;0.77;;;;;;;-0.28;100.00;92229.34;2121207;28;20026;-83
2024/03/25 02:51:12;;;;;;;0.70;0.70;;;;;;;-0.21;100.00;92232.03;2112296;28;20516;-82
2024/03/25 02:52:13;;;;;;;1.70;1.00;;;;;;;-0.18;100.00;92225.25;2112427;28;20027;-83
2024/03/25 02:53:14;;;;;;;1.70;0.80;;;;;;;-0.02;100.00;92225.69;2112918;28;20094;-82
2024/03/25 02:54:15;;;;;;;1.05;0.95;;;;;;;-0.01;100.00;92227.19;2112702;28;20036;-81
2024/03/25 02:55:17;;;;;;;1.95;1.00;;;;;;;-0.11;100.00;92226.03;2121115;28;20016;-83
2024/03/25 02:56:18;;;;;;;1.05;0.90;;;;;;;-0.12;100.00;92226.44;2112728;28;20026;-83
2024/03/25 02:57:19;;;;;;;0.80;0.80;;;;;;;-0.16;100.00;92229.03;2112726;28;20016;-81
2024/03/25 02:58:20;;;;;;;0.88;0.70;;;;;;;-0.11;100.00;92228.66;2112773;28;20380;-82
2024/03/25 02:59:21;;;;;;;0.98;0.88;;;;;;;-0.08;100.00;92222.69;2112539;28;20030;-82
2024/03/25 03:00:22;;;;;;;0.70;0.70;;;;;;;0.03;100.00;92224.59;2112535;28;20487;-82
2024/03/25 03:01:23;;;;;;;1.00;0.68;;;;;;;-0.08;100.00;92221.94;2111837;28;20119;-84
2024/03/25 03:02:25;;;;;;;0.70;0.70;;;;;;;-0.20;100.00;92230.16;2103962;28;20024;-84
2024/03/25 03:03:26;;;;;;;0.82;0.80;;;;;;;-0.08;100.00;92232.44;2105668;28;20065;-82
2024/03/25 03:04:27;;;;;;;1.27;0.70;;;;;;;0.12;100.00;92228.34;2112521;28;20023;-82
2024/03/25 03:05:28;;;;;;;1.02;0.90;;;;;;;0.25;100.00;92228.78;2120952;28;20045;-82
2024/03/25 03:06:31;;;;;;;0.60;0.52;;;;;;;-0.01;100.00;92229.81;2112985;28;20287;-82
2024/03/25 03:07:32;;;;;;;0.80;0.80;;;;;;;-0.06;100.00;92228.31;2112478;28;20034;-82
2024/03/25 03:08:33;;;;;;;0.70;0.70;;;;;;;0.00;100.00;92228.72;2109302;28;20031;-83
2024/03/25 03:09:35;;;;;;;0.98;0.95;;;;;;;-0.02;100.00;92223.06;2117029;27;20035;-82
2024/03/25 03:10:36;;;;;;;0.95;0.70;;;;;;;0.05;100.00;92223.09;2104743;28;20526;-83
2024/03/25 03:11:37;;;;;;;0.60;0.60;;;;;;;0.02;100.00;92223.84;2110178;27;20020;-83
2024/03/25 03:12:38;;;;;;;0.70;0.70;;;;;;;-0.07;100.00;92218.19;2129210;27;20072;-83
2024/03/25 03:13:39;;;;;;;0.80;0.80;;;;;;;-0.13;100.00;92220.41;2121607;27;20096;-82
2024/03/25 03:14:40;;;;;;;1.35;0.65;;;;;;;-0.18;100.00;92218.13;2121228;28;20049;-83
2024/03/25 03:15:44;;;;;;;0.68;0.68;;;;;;;-0.29;100.00;92227.84;2104197;28;20020;-83
2024/03/25 03:16:45;;;;;;;1.65;0.80;;;;;;;-0.44;100.00;92218.41;2104678;28;20501;-83
2024/03/25 03:17:46;;;;;;;0.65;0.63;;;;;;;-0.41;100.00;92228.91;2112267;28;20024;-83
2024/03/25 03:18:48;;;;;;;0.75;0.75;;;;;;;-0.41;100.00;92228.91;2103568;28;20040;-82
2024/03/25 03:19:49;;;;;;;0.90;0.85;;;;;;;-0.30;100.00;92221.09;2103917;28;20024;-83
2024/03/25 03:20:50;;;;;;;0.77;0.77;;;;;;;-0.61;100.00;92233.72;2095501;28;20067;-82
2024/03/25 03:21:52;;;;;;;1.30;0.80;;;;;;;-0.64;100.00;92223.94;2112255;28;20213;-82
2024/03/25 03:22:53;;;;;;;1.10;0.80;;;;;;;-0.63;100.00;92217.56;2118988;28;20092;-82
2024/03/25 03:23:54;;;;;;;1.70;0.82;;;;;;;-0.43;100.00;92230.44;2112397;28;20114;-82
2024/03/25 03:24:55;;;;;;;0.95;0.80;;;;;;;-0.52;100.00;92234.13;2120794;28;20027;-83
2024/03/25 03:25:57;;;;;;;0.60;0.60;;;;;;;-0.72;100.00;92229.50;2121118;28;20459;-83
2024/03/25 03:26:58;;;;;;;1.00;0.80;;;;;;;-0.41;100.00;92230.78;2104082;28;20020;-83
2024/03/25 03:27:59;;;;;;;1.13;0.90;;;;;;;-0.47;100.00;92224.41;2112423;28;20077;-82
2024/03/25 03:29:00;;;;;;;1.00;0.70;;;;;;;-0.41;100.00;92230.78;2120838;28;20321;-83
2024/03/25 03:30:01;;;;;;;0.73;0.65;;;;;;;-0.44;100.00;92228.91;2120770;28;20035;-82
2024/03/25 03:31:02;;;;;;;0.80;0.80;;;;;;;-0.42;100.00;92227.41;2112555;28;20027;-82
2024/03/25 03:32:03;;;;;;;0.88;0.88;;;;;;;-0.46;100.00;92226.66;2091358;28;20646;-83
2024/03/25 03:33:04;;;;;;;1.45;0.95;;;;;;;-0.39;100.00;92228.56;2099957;28;20111;-83
2024/03/25 03:34:05;;;;;;;0.70;0.70;;;;;;;-0.32;100.00;92220.72;2103774;28;20839;-82
2024/03/25 03:35:07;;;;;;;1.33;0.80;;;;;;;-0.20;100.00;92224.88;2104171;28;20095;-82
2024/03/25 03:36:08;;;;;;;0.80;0.80;;;;;;;-0.11;100.00;92226.03;2112139;28;20103;-83
2024/03/25 03:37:09;;;;;;;0.70;0.70;;;;;;;-0.24;100.00;92230.13;2112269;28;20456;-82
2024/03/25 03:38:10;;;;;;;0.70;0.70;;;;;;;-0.38;100.00;92227.44;2112873;28;20560;-83
2024/03/25 03:39:11;;;;;;;1.38;0.75;;;;;;;-0.38;100.00;92224.81;2106602;28;20028;-83
2024/03/25 03:40:14;;;;;;;0.75;0.75;;;;;;;-0.40;100.00;92229.66;2111774;28;20462;-83
2024/03/25 03:41:15;;;;;;;1.45;0.80;;;;;;;-0.37;100.00;92227.06;2102802;28;20060;-83
2024/03/25 03:42:16;;;;;;;1.60;0.90;;;;;;;-0.23;100.00;92223.75;2096925;28;20589;-82
2024/03/25 03:43:17;;;;;;;0.80;0.80;;;;;;;-0.43;100.00;92227.81;2018049;28;22503;-83
2024/03/25 03:44:18;;;;;;;0.80;0.80;;;;;;;-0.31;100.00;92224.81;1999048;28;20203;-83
2024/03/25 03:45:19;;;;;;;0.95;0.80;;;;;;;-0.33;100.00;92224.47;2011296;28;21102;-83
2024/03/25 03:46:20;;;;;;;0.90;0.90;;;;;;;-0.22;100.00;92217.38;2023243;28;20587;-83
2024/03/25 03:47:21;;;;;;;1.00;0.90;;;;;;;-0.26;100.00;92224.50;2034905;28;20032;-82
2024/03/25 03:48:22;;;;;;;1.25;1.00;;;;;;;-0.14;100.00;92215.53;2054664;28;20063;-82
2024/03/25 03:49:23;;;;;;;1.33;0.90;;;;;;;0.04;100.00;92210.31;2081499;28;20030;-82
2024/03/25 03:50:25;;;;;;;1.20;0.90;;;;;;;0.08;100.00;92206.59;2104344;28;20038;-82
2024/03/25 03:51:26;;;;;;;1.40;1.02;;;;;;;-0.10;100.00;92214.41;2026197;28;20020;-83
2024/03/25 03:52:28;;;;;;;0.80;0.80;;;;;;;-0.23;100.00;92209.88;2018420;28;20349;-82
2024/03/25 03:53:29;;;;;;;0.95;0.95;;;;;;;-0.10;100.00;92200.53;2029879;28;20510;-82
2024/03/25 03:54:30;;;;;;;0.93;0.80;;;;;;;-0.17;100.00;92214.41;2019391;28;20052;-83
2024/03/25 03:55:31;;;;;;;1.35;0.80;;;;;;;-0.29;100.00;92210.22;2010114;28;20056;-83
2024/03/25 03:56:32;;;;;;;1.90;0.93;;;;;;;-0.23;100.00;92207.25;2039367;28;20106;-83
2024/03/25 03:57:33;;;;;;;1.10;1.00;;;;;;;-0.23;100.00;92210.63;2030542;28;20848;-82
2024/03/25 03:58:34;;;;;;;1.63;0.80;;;;;;;-0.19;100.00;92214.00;2031691;28;20055;-82
2024/03/25 03:59:35;;;;;;;2.08;1.10;;;;;;;-0.22;100.00;92204.25;2040537;28;20090;-81
2024/03/25 04:00:36;;;;;;;1.35;1.00;;;;;;;-0.22;100.00;92206.09;2038107;28;21479;-82
2024/03/25 04:01:37;;;;;;;9.27;8.45;;;;;;;-0.28;100.00;92203.84;2054793;28;20871;-82
2024/03/25 04:02:38;;;;;;;4.20;3.75;;;;;;;-0.45;100.00;92204.53;2082528;28;20039;-82
2024/03/25 04:03:39;;;;;;;1.48;1.38;;;;;;;-0.31;100.00;92206.44;2087232;28;20028;-83
2024/03/25 04:04:40;;;;;;;1.20;1.10;;;;;;;-0.36;100.00;92204.19;2091107;28;20056;-83
2024/03/25 04:05:41;;;;;;;1.63;1.10;;;;;;;-0.13;100.00;92209.13;2106490;28;20024;-83
2024/03/25 04:06:42;;;;;;;1.00;0.88;;;;;;;-0.06;100.00;92207.28;2114630;28;20034;-83
2024/03/25 04:07:43;;;;;;;1.75;0.90;;;;;;;-0.05;100.00;92203.53;2114972;28;20511;-82
2024/03/25 04:08:44;;;;;;;1.10;1.00;;;;;;;-0.28;100.00;92211.72;2115514;28;20023;-83
2024/03/25 04:09:45;;;;;;;0.85;0.85;;;;;;;-0.24;100.00;92217.00;2114731;28;20031;-82
2024/03/25 04:10:53;;;;;;;0.90;0.90;;;;;;;-0.22;100.00;92208.75;2097863;28;20050;-82
2024/03/25 04:11:54;;;;;;;2.00;0.90;;;;;;;-0.27;100.00;92212.47;2091537;28;20056;-82
2024/03/25 04:12:55;;;;;;;1.35;0.98;;;;;;;-0.21;100.00;92215.50;2106375;28;20107;-82
2024/03/25 04:13:56;;;;;;;1.27;0.90;;;;;;;-0.25;100.00;92215.50;2115393;28;20015;-82
2024/03/25 04:14:57;;;;;;;1.02;0.90;;;;;;;-0.29;100.00;92217.34;2114889;28;20023;-82
2024/03/25 04:16:04;;;;;;;1.38;1.00;;;;;;;-0.32;100.00;92223.34;2106506;28;20141;-82
2024/03/25 04:17:05;;;;;;;1.02;0.93;;;;;;;-0.28;100.00;92221.47;2106434;28;20049;-82
2024/03/25 04:18:07;;;;;;;1.45;0.90;;;;;;;-0.14;100.00;92220.78;2109986;28;20103;-82
2024/03/25 04:19:08;;;;;;;0.80;0.80;;;;;;;-0.30;100.00;92221.09;2114792;28;20019;-82
2024/03/25 04:20:11;;;;;;;1.20;0.90;;;;;;;-0.28;100.00;92219.59;2114690;28;20024;-82
2024/03/25 04:21:13;;;;;;;1.30;1.20;;;;;;;-0.04;100.00;92220.06;2113829;28;20023;-82
2024/03/25 04:22:14;;;;;;;2.13;1.20;;;;;;;-0.12;100.00;92219.28;2106507;28;20549;-82
2024/03/25 04:23:15;;;;;;;1.38;1.10;;;;;;;-0.22;100.00;92222.66;2102837;28;20031;-82
2024/03/25 04:24:18;;;;;;;1.90;1.80;;;;;;;-0.26;100.00;92214.75;2089798;28;20028;-82
2024/03/25 04:25:19;;;;;;;2.35;1.80;;;;;;;-0.27;100.00;92215.84;2098097;28;20055;-82
2024/03/25 04:26:20;;;;;;;1.88;1.40;;;;;;;-0.25;100.00;92215.50;2098235;28;20029;-82
2024/03/25 04:27:24;;;;;;;2.05;1.77;;;;;;;-0.32;100.00;92213.59;2111500;28;20074;-82
2024/03/25 04:28:25;;;;;;;2.83;2.60;;;;;;;-0.32;100.00;92213.59;2114560;28;20102;-82
2024/03/25 04:29:26;;;;;;;2.67;2.30;;;;;;;-0.48;100.00;92207.91;2113531;28;20024;-82
2024/03/25 04:30:27;;;;;;;3.05;2.85;;;;;;;-0.52;100.00;92207.88;2114842;28;20027;-82
2024/03/25 04:31:37;;;;;;;3.90;3.50;;;;;;;-0.54;100.00;92219.84;2104278;28;20473;-82
2024/03/25 04:32:42;;;;;;;2.50;2.30;;;;;;;-0.35;100.00;92216.97;2100198;28;20032;-83
2024/03/25 04:33:43;;;;;;;2.17;2.08;;;;;;;-0.40;100.00;92206.78;2098340;28;20028;-82
2024/03/25 04:34:44;;;;;;;2.08;1.98;;;;;;;-0.39;100.00;92210.94;2097951;28;20535;-82
2024/03/25 04:35:47;;;;;;;2.15;2.05;;;;;;;-0.39;100.00;92210.94;2114751;28;20039;-82
2024/03/25 04:36:48;;;;;;;3.45;2.03;;;;;;;-0.42;100.00;92211.66;2106339;28;20020;-82
2024/03/25 04:37:49;;;;;;;2.08;1.95;;;;;;;-0.54;100.00;92209.34;2098183;28;20050;-82
2024/03/25 04:38:50;;;;;;;2.10;1.90;;;;;;;-0.44;100.00;92207.91;2106215;28;20028;-82
2024/03/25 04:39:51;;;;;;;1.85;1.75;;;;;;;-0.31;100.00;92212.47;2114935;28;20527;-83
2024/03/25 04:40:54;;;;;;;1.20;1.10;;;;;;;-0.39;100.00;92210.19;2106363;28;20594;-82
2024/03/25 04:41:55;;;;;;;1.70;1.60;;;;;;;-0.52;100.00;92218.38;2105602;28;20043;-82
2024/03/25 04:42:56;;;;;;;1.70;1.60;;;;;;;-0.46;100.00;92212.78;2097766;28;20016;-83
2024/03/25 04:43:57;;;;;;;1.95;1.40;;;;;;;-0.43;100.00;92204.94;2106270;28;20028;-83
2024/03/25 04:44:58;;;;;;;1.60;1.50;;;;;;;-0.50;100.00;92204.88;2106129;28;20042;-83
2024/03/25 04:46:03;;;;;;;2.72;1.45;;;;;;;-0.53;100.00;92203.75;2106128;28;20027;-82
2024/03/25 04:47:04;;;;;;;1.25;1.15;;;;;;;-0.55;100.00;92200.72;2098294;28;20032;-82
2024/03/25 04:48:07;;;;;;;1.10;1.00;;;;;;;-0.44;100.00;92200.03;2089861;28;20044;-82
2024/03/25 04:49:08;;;;;;;1.08;1.00;;;;;;;-0.58;100.00;92209.34;2098240;28;20028;-82
2024/03/25 04:50:09;;;;;;;1.55;1.13;;;;;;;-0.72;100.00;92195.41;2105395;28;20035;-83
2024/03/25 04:51:10;;;;;;;1.75;1.23;;;;;;;-0.62;100.00;92199.94;2108279;28;20714;-83
2024/03/25 04:52:17;;;;;;;3.50;1.15;;;;;;;-0.62;100.00;92190.19;2112401;28;20042;-82
2024/03/25 04:53:18;;;;;;;1.42;1.10;;;;;;;-0.55;100.00;92190.25;2098616;28;20116;-82
2024/03/25 04:54:19;;;;;;;1.35;0.82;;;;;;;-0.56;100.00;92195.88;2097722;28;20384;-82